createdAt,value
2023-04-26T01:43:36.194Z,489.00
2023-04-26T01:44:35.963Z,457.00
2023-04-26T01:45:35.910Z,447.00
2023-04-26T01:46:35.882Z,444.00
2023-04-26T01:47:35.944Z,444.00
2023-04-26T01:48:35.788Z,443.00
2023-04-26T01:49:35.792Z,442.00
2023-04-26T01:50:35.723Z,440.00
2023-04-26T01:51:35.778Z,441.00
2023-04-26T01:52:35.700Z,444.00
2023-04-26T01:53:35.770Z,447.00
2023-04-26T01:54:35.731Z,443.00
2023-04-26T01:55:35.700Z,444.00
2023-04-26T01:56:35.660Z,444.00
2023-04-26T01:57:35.771Z,439.00
2023-04-26T01:58:35.630Z,438.00
2023-04-26T01:59:35.615Z,439.00
2023-04-26T02:00:35.612Z,440.00
2023-04-26T02:01:35.689Z,439.00
2023-04-26T02:02:35.683Z,442.00
2023-04-26T02:03:36.708Z,438.00
2023-04-26T02:04:35.569Z,437.00
2023-04-26T02:05:35.577Z,436.00
2023-04-26T02:06:35.544Z,438.00
2023-04-26T02:07:35.581Z,436.00
2023-04-26T02:08:35.544Z,437.00
2023-04-26T02:09:35.569Z,435.00
2023-04-26T02:10:35.483Z,439.00
2023-04-26T02:11:35.504Z,434.00
2023-04-26T02:12:35.458Z,436.00
2023-04-26T02:13:35.575Z,439.00
2023-04-26T02:14:35.407Z,437.00
2023-04-26T02:15:35.504Z,440.00
2023-04-26T02:16:35.459Z,445.00
2023-04-26T02:17:35.474Z,448.00
2023-04-26T02:18:35.442Z,445.00
2023-04-26T02:19:35.349Z,444.00
2023-04-26T02:20:35.341Z,448.00
2023-04-26T02:21:35.402Z,447.00
2023-04-26T02:22:35.357Z,443.00
2023-04-26T02:23:35.401Z,445.00
2023-04-26T02:24:35.287Z,445.00
2023-04-26T02:25:35.304Z,442.00
2023-04-26T02:26:35.260Z,440.00
2023-04-26T02:27:35.324Z,439.00
2023-04-26T02:28:35.251Z,438.00
2023-04-26T02:29:42.961Z,442.00
2023-04-26T02:30:36.240Z,443.00
2023-04-26T02:31:35.300Z,444.00
2023-04-26T02:32:35.219Z,443.00
2023-04-26T02:33:35.261Z,445.00
2023-04-26T02:34:35.176Z,445.00
2023-04-26T02:35:35.172Z,471.00
2023-04-26T02:36:35.143Z,471.00
2023-04-26T02:37:35.194Z,474.00
2023-04-26T02:38:35.110Z,472.00
2023-04-26T02:39:35.111Z,443.00
2023-04-26T02:40:35.102Z,440.00
2023-04-26T02:41:35.104Z,444.00
2023-04-26T02:42:35.061Z,439.00
2023-04-26T02:43:35.116Z,439.00
2023-04-26T02:44:35.021Z,465.00
2023-04-26T02:45:35.038Z,475.00
2023-04-26T02:46:35.050Z,478.00
2023-04-26T02:47:35.157Z,449.00
2023-04-26T02:48:34.970Z,453.00
2023-04-26T02:49:37.070Z,453.00
2023-04-26T02:50:34.931Z,475.00
2023-04-26T02:51:35.025Z,470.00
2023-04-26T02:52:34.916Z,454.00
2023-04-26T02:53:34.984Z,447.00
2023-04-26T02:54:34.936Z,434.00
2023-04-26T02:55:34.909Z,435.00
2023-04-26T02:56:34.882Z,434.00
2023-04-26T02:57:34.920Z,443.00
2023-04-26T02:58:34.825Z,443.00
2023-04-26T02:59:34.973Z,439.00
2023-04-26T03:00:34.932Z,441.00
2023-04-26T03:01:34.969Z,438.00
2023-04-26T03:02:34.890Z,440.00
2023-04-26T03:03:35.042Z,440.00
2023-04-26T03:04:34.747Z,446.00
2023-04-26T03:05:34.772Z,441.00
2023-04-26T03:06:34.762Z,436.00
2023-04-26T03:07:34.794Z,437.00
2023-04-26T03:08:34.690Z,441.00
2023-04-26T03:09:34.837Z,440.00
2023-04-26T03:10:34.672Z,438.00
2023-04-26T03:11:34.756Z,439.00
2023-04-26T03:12:34.700Z,440.00
2023-04-26T03:13:34.736Z,442.00
2023-04-26T03:14:34.645Z,440.00
2023-04-26T03:15:34.646Z,444.00
2023-04-26T03:16:34.615Z,444.00
2023-04-26T03:17:34.725Z,437.00
2023-04-26T03:18:34.612Z,441.00
2023-04-26T03:19:34.677Z,439.00
2023-04-26T03:20:34.551Z,441.00
2023-04-26T03:21:34.575Z,444.00
2023-04-26T03:22:34.516Z,443.00
2023-04-26T03:23:34.902Z,443.00
2023-04-26T03:24:35.054Z,438.00
2023-04-26T03:25:34.705Z,437.00
2023-04-26T03:26:34.483Z,441.00
2023-04-26T03:27:34.530Z,440.00
2023-04-26T03:28:34.486Z,441.00
2023-04-26T03:29:34.562Z,441.00
2023-04-26T03:30:34.436Z,444.00
2023-04-26T03:31:34.462Z,445.00
2023-04-26T03:32:34.439Z,443.00
2023-04-26T03:33:34.475Z,443.00
2023-04-26T03:34:34.405Z,443.00
2023-04-26T03:35:34.386Z,442.00
2023-04-26T03:36:34.359Z,437.00
2023-04-26T03:37:34.410Z,444.00
2023-04-26T03:38:34.340Z,439.00
2023-04-26T03:39:34.458Z,441.00
2023-04-26T03:40:34.288Z,438.00
2023-04-26T03:41:34.323Z,438.00
2023-04-26T03:42:34.302Z,443.00
2023-04-26T03:43:34.339Z,435.00
2023-04-26T03:44:34.226Z,437.00
2023-04-26T03:45:34.283Z,433.00
2023-04-26T03:46:34.206Z,436.00
2023-04-26T03:47:34.336Z,439.00
2023-04-26T03:48:34.206Z,443.00
2023-04-26T03:49:34.275Z,443.00
2023-04-26T03:50:34.147Z,439.00
2023-04-26T03:51:34.202Z,440.00
2023-04-26T03:52:34.120Z,440.00
2023-04-26T03:53:34.204Z,441.00
2023-04-26T03:54:34.127Z,441.00
2023-04-26T03:55:34.265Z,441.00
2023-04-26T03:56:34.089Z,437.00
2023-04-26T03:57:34.142Z,440.00
2023-04-26T03:58:34.053Z,440.00
2023-04-26T03:59:34.140Z,441.00
2023-04-26T04:00:34.043Z,441.00
2023-04-26T04:01:34.065Z,440.00
2023-04-26T04:02:34.128Z,436.00
2023-04-26T04:03:34.196Z,435.00
2023-04-26T04:04:34.068Z,436.00
2023-04-26T04:05:34.030Z,438.00
2023-04-26T04:06:34.026Z,441.00
2023-04-26T04:07:34.013Z,435.00
2023-04-26T04:08:33.897Z,437.00
2023-04-26T04:09:34.025Z,442.00
2023-04-26T04:10:34.065Z,440.00
2023-04-26T04:11:33.917Z,438.00
2023-04-26T04:12:33.887Z,438.00
2023-04-26T04:13:33.933Z,439.00
2023-04-26T04:14:33.871Z,441.00
2023-04-26T04:15:33.903Z,442.00
2023-04-26T04:16:33.824Z,439.00
2023-04-26T04:17:34.441Z,438.00
2023-04-26T04:18:33.808Z,443.00
2023-04-26T04:19:33.879Z,445.00
2023-04-26T04:20:33.778Z,447.00
2023-04-26T04:21:33.855Z,446.00
2023-04-26T04:22:33.727Z,445.00
2023-04-26T04:23:33.803Z,446.00
2023-04-26T04:24:34.513Z,446.00
2023-04-26T04:25:33.785Z,448.00
2023-04-26T04:26:33.693Z,446.00
2023-04-26T04:27:33.737Z,442.00
2023-04-26T04:28:33.654Z,444.00
2023-04-26T04:29:33.752Z,444.00
2023-04-26T04:30:33.652Z,445.00
2023-04-26T04:31:33.700Z,443.00
2023-04-26T04:32:33.644Z,445.00
2023-04-26T04:33:33.675Z,444.00
2023-04-26T04:34:33.585Z,443.00
2023-04-26T04:35:33.703Z,444.00
2023-04-26T04:36:33.584Z,445.00
2023-04-26T04:37:33.629Z,444.00
2023-04-26T04:38:33.514Z,443.00
2023-04-26T04:39:33.641Z,441.00
2023-04-26T04:40:33.508Z,442.00
2023-04-26T04:41:33.541Z,444.00
2023-04-26T04:42:33.502Z,446.00
2023-04-26T04:43:33.534Z,446.00
2023-04-26T04:44:33.432Z,446.00
2023-04-26T04:45:33.457Z,448.00
2023-04-26T04:46:33.502Z,452.00
2023-04-26T04:47:33.530Z,450.00
2023-04-26T04:48:33.416Z,449.00
2023-04-26T04:49:35.486Z,449.00
2023-04-26T04:50:33.386Z,446.00
2023-04-26T04:51:33.408Z,442.00
2023-04-26T04:52:33.346Z,440.00
2023-04-26T04:53:33.417Z,441.00
2023-04-26T04:54:33.352Z,441.00
2023-04-26T04:55:33.315Z,440.00
2023-04-26T04:56:33.305Z,440.00
2023-04-26T04:57:33.342Z,441.00
2023-04-26T04:58:33.257Z,440.00
2023-04-26T04:59:33.346Z,442.00
2023-04-26T05:00:33.266Z,440.00
2023-04-26T05:01:33.299Z,440.00
2023-04-26T05:02:33.316Z,442.00
2023-04-26T05:03:33.337Z,443.00
2023-04-26T05:04:33.400Z,445.00
2023-04-26T05:05:33.214Z,443.00
2023-04-26T05:06:33.179Z,443.00
2023-04-26T05:07:33.202Z,445.00
2023-04-26T05:08:33.125Z,440.00
2023-04-26T05:09:33.221Z,440.00
2023-04-26T05:10:33.092Z,436.00
2023-04-26T05:11:33.140Z,440.00
2023-04-26T05:12:33.103Z,441.00
2023-04-26T05:13:33.159Z,440.00
2023-04-26T05:14:33.049Z,440.00
2023-04-26T05:15:33.103Z,438.00
2023-04-26T05:16:33.045Z,437.00
2023-04-26T05:17:33.089Z,439.00
2023-04-26T05:18:33.110Z,440.00
2023-04-26T05:19:33.094Z,443.00
2023-04-26T05:20:33.098Z,443.00
2023-04-26T05:21:32.988Z,446.00
2023-04-26T05:22:32.958Z,444.00
2023-04-26T05:23:33.033Z,447.00
2023-04-26T05:24:32.939Z,443.00
2023-04-26T05:25:32.929Z,442.00
2023-04-26T05:26:32.890Z,447.00
2023-04-26T05:27:32.953Z,445.00
2023-04-26T05:28:32.875Z,446.00
2023-04-26T05:29:32.950Z,442.00
2023-04-26T05:30:32.850Z,440.00
2023-04-26T05:31:32.916Z,440.00
2023-04-26T05:32:32.823Z,443.00
2023-04-26T05:33:32.899Z,443.00
2023-04-26T05:34:32.813Z,443.00
2023-04-26T05:35:33.819Z,440.00
2023-04-26T05:36:32.776Z,441.00
2023-04-26T05:37:32.846Z,441.00
2023-04-26T05:38:33.357Z,441.00
2023-04-26T05:39:32.841Z,438.00
2023-04-26T05:40:32.725Z,439.00
2023-04-26T05:41:33.535Z,440.00
2023-04-26T05:42:32.713Z,436.00
2023-04-26T05:43:32.772Z,439.00
2023-04-26T05:44:32.660Z,433.00
2023-04-26T05:45:32.683Z,434.00
2023-04-26T05:46:32.652Z,437.00
2023-04-26T05:47:34.747Z,436.00
2023-04-26T05:48:32.739Z,436.00
2023-04-26T05:49:32.688Z,439.00
2023-04-26T05:50:32.586Z,438.00
2023-04-26T05:51:32.582Z,439.00
2023-04-26T05:52:32.617Z,440.00
2023-04-26T05:53:32.555Z,439.00
2023-04-26T05:54:32.573Z,439.00
2023-04-26T05:55:33.165Z,436.00
2023-04-26T05:56:33.554Z,438.00
2023-04-26T05:57:32.520Z,440.00
2023-04-26T05:58:33.598Z,440.00
2023-04-26T05:59:32.713Z,438.00
2023-04-26T06:00:32.544Z,438.00
2023-04-26T06:01:32.421Z,439.00
2023-04-26T06:02:32.581Z,439.00
2023-04-26T06:03:32.735Z,439.00
2023-04-26T06:04:32.778Z,437.00
2023-04-26T06:05:32.479Z,440.00
2023-04-26T06:06:33.488Z,441.00
2023-04-26T06:07:32.382Z,442.00
2023-04-26T06:08:32.453Z,439.00
2023-04-26T06:09:32.473Z,441.00
2023-04-26T06:10:32.332Z,436.00
2023-04-26T06:11:32.298Z,438.00
2023-04-26T06:12:33.489Z,436.00
2023-04-26T06:13:32.304Z,437.00
2023-04-26T06:14:32.354Z,440.00
2023-04-26T06:15:32.256Z,439.00
2023-04-26T06:16:32.305Z,441.00
2023-04-26T06:17:32.243Z,438.00
2023-04-26T06:18:32.364Z,440.00
2023-04-26T06:19:32.346Z,441.00
2023-04-26T06:20:32.219Z,442.00
2023-04-26T06:21:32.171Z,420.00
2023-04-26T06:22:32.252Z,437.00
2023-04-26T06:23:32.133Z,437.00
2023-04-26T06:24:32.181Z,443.00
2023-04-26T06:25:32.104Z,441.00
2023-04-26T06:26:32.148Z,439.00
2023-04-26T06:27:32.096Z,440.00
2023-04-26T06:28:32.162Z,442.00
2023-04-26T06:29:33.072Z,439.00
2023-04-26T06:30:32.113Z,438.00
2023-04-26T06:31:32.214Z,442.00
2023-04-26T06:32:32.221Z,437.00
2023-04-26T06:33:32.008Z,440.00
2023-04-26T06:34:32.091Z,437.00
2023-04-26T06:35:31.994Z,443.00
2023-04-26T06:36:32.068Z,446.00
2023-04-26T06:37:31.959Z,434.00
2023-04-26T06:38:32.185Z,440.00
2023-04-26T06:39:32.065Z,436.00
2023-04-26T06:40:31.984Z,439.00
2023-04-26T06:41:31.902Z,442.00
2023-04-26T06:42:32.025Z,442.00
2023-04-26T06:43:31.964Z,442.00
2023-04-26T06:44:31.982Z,440.00
2023-04-26T06:45:31.865Z,440.00
2023-04-26T06:46:31.961Z,439.00
2023-04-26T06:47:31.838Z,437.00
2023-04-26T06:48:32.008Z,436.00
2023-04-26T06:49:31.788Z,436.00
2023-04-26T06:50:31.795Z,436.00
2023-04-26T06:51:31.762Z,435.00
2023-04-26T06:52:31.828Z,435.00
2023-04-26T06:53:31.780Z,440.00
2023-04-26T06:54:32.005Z,438.00
2023-04-26T06:55:32.576Z,441.00
2023-04-26T06:56:31.892Z,439.00
2023-04-26T06:57:31.735Z,447.00
2023-04-26T06:58:31.778Z,444.00
2023-04-26T06:59:31.673Z,439.00
2023-04-26T07:00:31.797Z,438.00
2023-04-26T07:01:31.677Z,433.00
2023-04-26T07:02:31.758Z,437.00
2023-04-26T07:03:31.752Z,439.00
2023-04-26T07:04:32.051Z,440.00
2023-04-26T07:05:31.938Z,440.00
2023-04-26T07:06:31.716Z,444.00
2023-04-26T07:07:31.567Z,447.00
2023-04-26T07:08:31.663Z,446.00
2023-04-26T07:09:31.562Z,445.00
2023-04-26T07:10:31.617Z,438.00
2023-04-26T07:11:31.491Z,438.00
2023-04-26T07:12:31.707Z,434.00
2023-04-26T07:13:31.727Z,437.00
2023-04-26T07:14:31.613Z,437.00
2023-04-26T07:15:32.418Z,443.00
2023-04-26T07:16:31.530Z,443.00
2023-04-26T07:17:31.436Z,436.00
2023-04-26T07:18:31.542Z,439.00
2023-04-26T07:19:31.439Z,440.00
2023-04-26T07:20:31.561Z,440.00
2023-04-26T07:21:31.382Z,437.00
2023-04-26T07:22:31.428Z,438.00
2023-04-26T07:23:31.342Z,437.00
2023-04-26T07:24:31.455Z,447.00
2023-04-26T07:25:31.356Z,443.00
2023-04-26T07:26:31.336Z,442.00
2023-04-26T07:27:31.316Z,439.00
2023-04-26T07:28:31.361Z,436.00
2023-04-26T07:29:31.304Z,436.00
2023-04-26T07:30:33.390Z,436.00
2023-04-26T07:31:31.225Z,435.00
2023-04-26T07:32:31.405Z,436.00
2023-04-26T07:33:31.549Z,434.00
2023-04-26T07:34:31.297Z,434.00
2023-04-26T07:35:31.198Z,434.00
2023-04-26T07:36:31.280Z,436.00
2023-04-26T07:37:31.150Z,437.00
2023-04-26T07:38:31.224Z,437.00
2023-04-26T07:39:31.147Z,437.00
2023-04-26T07:40:31.238Z,436.00
2023-04-26T07:41:31.100Z,440.00
2023-04-26T07:42:31.198Z,441.00
2023-04-26T07:43:31.072Z,443.00
2023-04-26T07:44:31.199Z,441.00
2023-04-26T07:45:31.101Z,442.00
2023-04-26T07:46:31.095Z,443.00
2023-04-26T07:47:31.046Z,439.00
2023-04-26T07:48:31.210Z,438.00
2023-04-26T07:49:31.036Z,439.00
2023-04-26T07:50:31.024Z,442.00
2023-04-26T07:51:31.058Z,442.00
2023-04-26T07:52:31.027Z,441.00
2023-04-26T07:53:30.931Z,435.00
2023-04-26T07:54:31.105Z,443.00
2023-04-26T07:55:30.909Z,440.00
2023-04-26T07:56:30.973Z,438.00
2023-04-26T07:57:30.881Z,445.00
2023-04-26T07:58:30.974Z,438.00
2023-04-26T07:59:30.856Z,439.00
2023-04-26T08:00:30.953Z,439.00
2023-04-26T08:01:31.166Z,433.00
2023-04-26T08:02:43.294Z,434.00
2023-04-26T08:03:31.956Z,436.00
2023-04-26T08:04:30.905Z,436.00
2023-04-26T08:05:31.122Z,432.00
2023-04-26T08:06:30.893Z,433.00
2023-04-26T08:07:30.781Z,433.00
2023-04-26T08:08:30.857Z,434.00
2023-04-26T08:09:30.769Z,439.00
2023-04-26T08:10:30.785Z,436.00
2023-04-26T08:11:30.703Z,435.00
2023-04-26T08:12:30.810Z,434.00
2023-04-26T08:13:30.675Z,433.00
2023-04-26T08:14:30.895Z,437.00
2023-04-26T08:15:30.636Z,438.00
2023-04-26T08:16:30.713Z,420.00
2023-04-26T08:17:30.663Z,432.00
2023-04-26T08:18:30.659Z,435.00
2023-04-26T08:19:30.606Z,435.00
2023-04-26T08:20:30.625Z,436.00
2023-04-26T08:21:30.607Z,436.00
2023-04-26T08:22:30.786Z,437.00
2023-04-26T08:23:30.519Z,437.00
2023-04-26T08:24:30.628Z,440.00
2023-04-26T08:25:30.533Z,440.00
2023-04-26T08:26:30.547Z,441.00
2023-04-26T08:27:30.474Z,439.00
2023-04-26T08:28:30.590Z,437.00
2023-04-26T08:29:30.457Z,436.00
2023-04-26T08:30:30.524Z,427.00
2023-04-26T08:31:30.469Z,430.00
2023-04-26T08:32:30.545Z,431.00
2023-04-26T08:33:30.416Z,436.00
2023-04-26T08:34:32.504Z,437.00
2023-04-26T08:35:30.381Z,438.00
2023-04-26T08:36:30.608Z,435.00
2023-04-26T08:37:30.404Z,438.00
2023-04-26T08:38:30.479Z,439.00
2023-04-26T08:39:30.321Z,446.00
2023-04-26T08:40:31.413Z,438.00
2023-04-26T08:41:30.321Z,432.00
2023-04-26T08:42:30.456Z,437.00
2023-04-26T08:43:30.261Z,426.00
2023-04-26T08:44:30.286Z,423.00
2023-04-26T08:45:30.250Z,429.00
2023-04-26T08:46:30.381Z,425.00
2023-04-26T08:47:30.268Z,429.00
2023-04-26T08:48:30.252Z,429.00
2023-04-26T08:49:30.187Z,425.00
2023-04-26T08:50:31.240Z,427.00
2023-04-26T08:51:30.155Z,432.00
2023-04-26T08:52:30.233Z,433.00
2023-04-26T08:53:30.152Z,430.00
2023-04-26T08:54:30.202Z,427.00
2023-04-26T08:55:30.108Z,433.00
2023-04-26T08:56:30.167Z,436.00
2023-04-26T08:57:30.085Z,434.00
2023-04-26T08:58:30.188Z,435.00
2023-04-26T08:59:30.042Z,437.00
2023-04-26T09:00:30.152Z,434.00
2023-04-26T09:01:30.096Z,440.00
2023-04-26T09:02:30.233Z,431.00
2023-04-26T09:03:30.145Z,432.00
2023-04-26T09:04:30.289Z,433.00
2023-04-26T09:05:30.005Z,436.00
2023-04-26T09:06:31.671Z,435.00
2023-04-26T09:07:30.197Z,431.00
2023-04-26T09:08:30.043Z,432.00
2023-04-26T09:09:29.914Z,440.00
2023-04-26T09:10:29.987Z,441.00
2023-04-26T09:11:29.944Z,436.00
2023-04-26T09:12:29.915Z,434.00
2023-04-26T09:13:29.861Z,433.00
2023-04-26T09:14:29.874Z,432.00
2023-04-26T09:15:29.844Z,431.00
2023-04-26T09:16:29.914Z,430.00
2023-04-26T09:17:29.825Z,426.00
2023-04-26T09:18:29.851Z,422.00
2023-04-26T09:19:29.817Z,425.00
2023-04-26T09:20:32.002Z,427.00
2023-04-26T09:21:29.859Z,424.00
2023-04-26T09:22:29.846Z,426.00
2023-04-26T09:23:29.746Z,430.00
2023-04-26T09:24:34.693Z,427.00
2023-04-26T09:25:35.577Z,430.00
2023-04-26T09:26:36.731Z,432.00
2023-04-26T09:27:29.660Z,431.00
2023-04-26T09:28:29.776Z,429.00
2023-04-26T09:29:29.636Z,432.00
2023-04-26T09:30:29.773Z,436.00
2023-04-26T09:31:29.635Z,436.00
2023-04-26T09:32:30.731Z,435.00
2023-04-26T09:33:29.597Z,431.00
2023-04-26T09:34:29.694Z,428.00
2023-04-26T09:35:29.569Z,430.00
2023-04-26T09:36:30.148Z,429.00
2023-04-26T09:37:29.529Z,436.00
2023-04-26T09:38:29.651Z,438.00
2023-04-26T09:39:29.509Z,438.00
2023-04-26T09:40:29.557Z,437.00
2023-04-26T09:41:29.502Z,436.00
2023-04-26T09:42:29.629Z,434.00
2023-04-26T09:43:29.487Z,435.00
2023-04-26T09:44:29.499Z,437.00
2023-04-26T09:45:29.480Z,434.00
2023-04-26T09:46:29.556Z,436.00
2023-04-26T09:47:29.486Z,436.00
2023-04-26T09:48:29.469Z,435.00
2023-04-26T09:49:29.389Z,431.00
2023-04-26T09:50:29.425Z,423.00
2023-04-26T09:51:29.359Z,428.00
2023-04-26T09:52:29.459Z,430.00
2023-04-26T09:53:29.327Z,435.00
2023-04-26T09:54:29.410Z,438.00
2023-04-26T09:55:34.950Z,438.00
2023-04-26T09:56:30.289Z,445.00
2023-04-26T09:57:29.427Z,428.00
2023-04-26T09:58:29.299Z,431.00
2023-04-26T09:59:29.250Z,428.00
2023-04-26T10:00:29.277Z,426.00
2023-04-26T10:01:29.735Z,428.00
2023-04-26T10:02:29.310Z,434.00
2023-04-26T10:03:29.591Z,436.00
2023-04-26T10:04:29.222Z,426.00
2023-04-26T10:05:31.078Z,427.00
2023-04-26T10:06:29.190Z,428.00
2023-04-26T10:07:29.251Z,427.00
2023-04-26T10:08:29.140Z,431.00
2023-04-26T10:09:29.171Z,435.00
2023-04-26T10:10:29.375Z,441.00
2023-04-26T10:11:29.488Z,430.00
2023-04-26T10:12:29.157Z,431.00
2023-04-26T10:13:29.189Z,432.00
2023-04-26T10:14:29.071Z,431.00
2023-04-26T10:15:30.127Z,430.00
2023-04-26T10:16:29.122Z,429.00
2023-04-26T10:17:29.147Z,429.00
2023-04-26T10:18:29.029Z,429.00
2023-04-26T10:19:29.014Z,433.00
2023-04-26T10:20:29.077Z,431.00
2023-04-26T10:21:29.088Z,426.00
2023-04-26T10:22:28.984Z,432.00
2023-04-26T10:23:29.095Z,433.00
2023-04-26T10:24:28.956Z,432.00
2023-04-26T10:25:30.019Z,436.00
2023-04-26T10:26:28.944Z,434.00
2023-04-26T10:27:28.991Z,431.00
2023-04-26T10:28:28.893Z,431.00
2023-04-26T10:29:28.898Z,431.00
2023-04-26T10:30:29.001Z,428.00
2023-04-26T10:31:29.021Z,426.00
2023-04-26T10:32:28.840Z,430.00
2023-04-26T10:33:28.933Z,423.00
2023-04-26T10:34:28.825Z,424.00
2023-04-26T10:35:28.864Z,423.00
2023-04-26T10:36:28.789Z,441.00
2023-04-26T10:37:28.871Z,413.00
2023-04-26T10:38:28.770Z,435.00
2023-04-26T10:39:28.787Z,433.00
2023-04-26T10:40:28.771Z,431.00
2023-04-26T10:41:29.052Z,438.00
2023-04-26T10:42:29.078Z,428.00
2023-04-26T10:43:30.299Z,427.00
2023-04-26T10:44:28.707Z,431.00
2023-04-26T10:45:28.719Z,432.00
2023-04-26T10:46:28.632Z,426.00
2023-04-26T10:47:28.782Z,427.00
2023-04-26T10:48:28.654Z,424.00
2023-04-26T10:49:28.611Z,432.00
2023-04-26T10:50:28.566Z,474.00
2023-04-26T10:51:28.633Z,431.00
2023-04-26T10:52:28.623Z,435.00
2023-04-26T10:53:28.613Z,427.00
2023-04-26T10:54:28.675Z,428.00
2023-04-26T10:55:28.575Z,429.00
2023-04-26T10:56:28.526Z,432.00
2023-04-26T10:57:28.753Z,432.00
2023-04-26T10:58:29.695Z,431.00
2023-04-26T10:59:43.537Z,429.00
2023-04-26T11:00:32.428Z,434.00
2023-04-26T11:01:28.498Z,433.00
2023-04-26T11:02:28.940Z,435.00
2023-04-26T11:03:28.570Z,432.00
2023-04-26T11:04:28.718Z,427.00
2023-04-26T11:05:28.394Z,436.00
2023-04-26T11:06:28.601Z,429.00
2023-04-26T11:07:28.351Z,429.00
2023-04-26T11:08:28.425Z,430.00
2023-04-26T11:09:28.339Z,429.00
2023-04-26T11:10:28.388Z,432.00
2023-04-26T11:11:28.318Z,433.00
2023-04-26T11:12:28.382Z,436.00
2023-04-26T11:13:28.283Z,431.00
2023-04-26T11:14:28.318Z,429.00
2023-04-26T11:15:28.277Z,428.00
2023-04-26T11:16:28.366Z,433.00
2023-04-26T11:17:28.271Z,451.00
2023-04-26T11:18:31.605Z,436.00
2023-04-26T11:19:28.206Z,433.00
2023-04-26T11:20:28.257Z,435.00
2023-04-26T11:21:28.193Z,437.00
2023-04-26T11:22:28.262Z,441.00
2023-04-26T11:23:28.211Z,576.00
2023-04-26T11:24:28.182Z,462.00
2023-04-26T11:25:28.136Z,442.00
2023-04-26T11:26:28.179Z,434.00
2023-04-26T11:27:28.176Z,441.00
2023-04-26T11:28:28.107Z,434.00
2023-04-26T11:29:28.233Z,428.00
2023-04-26T11:30:28.668Z,427.00
2023-04-26T11:31:28.132Z,438.00
2023-04-26T11:32:28.193Z,433.00
2023-04-26T11:33:28.033Z,428.00
2023-04-26T11:34:29.342Z,425.00
2023-04-26T11:35:28.072Z,427.00
2023-04-26T11:40:03.372Z,477.00
2023-04-26T11:41:03.568Z,447.00
2023-04-26T11:42:04.006Z,441.00
2023-04-26T11:43:03.300Z,437.00
2023-04-26T11:44:11.246Z,434.00
2023-04-26T11:51:38.708Z,475.00
2023-04-26T11:51:57.762Z,428.00
2023-04-26T11:52:57.749Z,421.00
2023-04-26T11:53:58.258Z,419.00
2023-04-26T11:54:57.708Z,420.00
2023-04-26T11:55:57.772Z,420.00
2023-04-26T11:56:57.721Z,421.00
2023-04-26T11:57:58.041Z,424.00
2023-04-26T11:58:57.891Z,417.00
2023-04-26T11:59:57.935Z,416.00
2023-04-26T12:00:57.627Z,417.00
2023-04-26T12:01:57.811Z,417.00
2023-04-26T12:02:57.878Z,420.00
2023-04-26T12:03:57.994Z,423.00
2023-04-26T12:04:58.176Z,422.00
2023-04-26T12:05:58.100Z,424.00
2023-04-26T12:06:58.080Z,421.00
2023-04-26T12:07:57.587Z,418.00
2023-04-26T12:08:57.529Z,417.00
2023-04-26T12:09:59.560Z,418.00
2023-04-26T12:10:57.542Z,421.00
2023-04-26T12:11:57.583Z,424.00
2023-04-26T12:12:57.902Z,423.00
2023-04-26T12:13:57.617Z,418.00
2023-04-26T12:14:57.598Z,423.00
2023-04-26T12:15:57.598Z,417.00
2023-04-26T12:16:57.540Z,418.00
2023-04-26T12:17:57.565Z,414.00
2023-04-26T12:18:57.455Z,413.00
2023-04-26T12:19:57.515Z,417.00
2023-04-26T12:20:57.422Z,418.00
2023-04-26T12:21:57.587Z,418.00
2023-04-26T12:22:57.373Z,420.00
2023-04-26T12:23:57.417Z,423.00
2023-04-26T12:24:57.367Z,420.00
2023-04-26T12:25:57.391Z,417.00
2023-04-26T12:26:57.358Z,422.00
2023-04-26T12:27:57.329Z,421.00
2023-04-26T12:28:57.256Z,422.00
2023-04-26T12:29:57.323Z,424.00
2023-04-26T12:30:57.224Z,423.00
2023-04-26T12:31:57.314Z,427.00
2023-04-26T12:33:05.828Z,423.00
2023-04-26T12:33:58.232Z,425.00
2023-04-26T12:34:57.268Z,425.00
2023-04-26T12:35:57.192Z,418.00
2023-04-26T12:36:57.159Z,422.00
2023-04-26T12:37:57.187Z,418.00
2023-04-26T12:38:57.310Z,421.00
2023-04-26T12:39:57.280Z,420.00
2023-04-26T12:40:57.219Z,423.00
2023-04-26T12:41:57.190Z,419.00
2023-04-26T12:42:57.145Z,417.00
2023-04-26T12:43:57.066Z,417.00
2023-04-26T12:44:57.215Z,412.00
2023-04-26T12:45:57.169Z,415.00
2023-04-26T12:46:57.128Z,418.00
2023-04-26T12:47:57.148Z,421.00
2023-04-26T12:48:57.039Z,417.00
2023-04-26T12:49:56.983Z,417.00
2023-04-26T12:50:58.036Z,417.00
2023-04-26T12:51:57.077Z,418.00
2023-04-26T12:52:56.993Z,423.00
2023-04-26T12:53:56.920Z,419.00
2023-04-26T12:54:56.968Z,420.00
2023-04-26T12:55:56.972Z,416.00
2023-04-26T12:56:56.957Z,415.00
2023-04-26T12:57:56.885Z,417.00
2023-04-26T12:58:57.152Z,415.00
2023-04-26T12:59:56.848Z,414.00
2023-04-26T13:00:56.931Z,416.00
2023-04-26T13:01:56.898Z,419.00
2023-04-26T13:02:57.101Z,410.00
2023-04-26T13:03:57.292Z,419.00
2023-04-26T13:04:57.012Z,419.00
2023-04-26T13:06:00.044Z,422.00
2023-04-26T13:06:56.787Z,419.00
2023-04-26T13:07:56.765Z,422.00
2023-04-26T13:08:56.752Z,416.00
2023-04-26T13:09:57.187Z,416.00
2023-04-26T13:10:56.992Z,415.00
2023-04-26T13:11:57.090Z,416.00
2023-04-26T13:12:56.711Z,413.00
2023-04-26T13:13:56.877Z,413.00
2023-04-26T13:14:56.733Z,413.00
2023-04-26T13:15:56.808Z,410.00
2023-04-26T13:16:56.629Z,410.00
2023-04-26T13:17:56.690Z,411.00
2023-04-26T13:18:56.710Z,413.00
2023-04-26T13:19:56.672Z,412.00
2023-04-26T13:20:56.645Z,410.00
2023-04-26T13:21:56.598Z,410.00
2023-04-26T13:22:56.604Z,414.00
2023-04-26T13:23:56.712Z,411.00
2023-04-26T13:24:56.604Z,423.00
2023-04-26T13:25:56.688Z,416.00
2023-04-26T13:26:56.548Z,417.00
2023-04-26T13:27:56.606Z,414.00
2023-04-26T13:28:56.510Z,414.00
2023-04-26T13:29:56.567Z,414.00
2023-04-26T13:30:56.493Z,415.00
2023-04-26T13:31:57.523Z,419.00
2023-04-26T13:32:58.204Z,419.00
2023-04-26T13:33:56.494Z,416.00
2023-04-26T13:34:56.469Z,413.00
2023-04-26T13:35:56.414Z,411.00
2023-04-26T13:36:58.598Z,417.00
2023-04-26T13:37:56.390Z,418.00
2023-04-26T13:38:56.510Z,422.00
2023-04-26T13:39:56.462Z,420.00
2023-04-26T13:40:56.411Z,420.00
2023-04-26T13:41:56.313Z,421.00
2023-04-26T13:42:56.327Z,420.00
2023-04-26T13:43:56.264Z,424.00
2023-04-26T13:44:56.445Z,424.00
2023-04-26T13:45:56.314Z,424.00
2023-04-26T13:46:56.379Z,438.00
2023-04-26T13:47:56.235Z,430.00
2023-04-26T13:48:56.240Z,410.00
2023-04-26T13:49:56.188Z,424.00
2023-04-26T13:50:56.356Z,415.00
2023-04-26T13:51:56.161Z,422.00
2023-04-26T13:52:56.172Z,425.00
2023-04-26T13:53:56.131Z,423.00
2023-04-26T13:54:56.233Z,419.00
2023-04-26T13:55:56.142Z,422.00
2023-04-26T13:56:56.144Z,423.00
2023-04-26T13:57:56.067Z,419.00
2023-04-26T13:58:57.145Z,424.00
2023-04-26T13:59:56.042Z,421.00
2023-04-26T14:00:56.165Z,420.00
2023-04-26T14:01:58.384Z,417.00
2023-04-26T14:02:56.470Z,421.00
2023-04-26T14:03:56.532Z,428.00
2023-04-26T14:04:56.258Z,423.00
2023-04-26T14:05:55.967Z,425.00
2023-04-26T14:06:56.123Z,422.00
2023-04-26T14:07:55.938Z,422.00
2023-04-26T14:08:56.115Z,419.00
2023-04-26T14:09:55.999Z,422.00
2023-04-26T14:10:56.967Z,421.00
2023-04-26T14:12:07.238Z,415.00
2023-04-26T14:12:56.886Z,419.00
2023-04-26T14:13:56.047Z,418.00
2023-04-26T14:14:55.850Z,422.00
2023-04-26T14:15:55.977Z,422.00
2023-04-26T14:16:55.809Z,419.00
2023-04-26T14:17:57.087Z,418.00
2023-04-26T14:18:55.805Z,421.00
2023-04-26T14:19:55.889Z,419.00
2023-04-26T14:20:55.796Z,420.00